createdAt,value
2022-08-12T00:00:43.221Z,60.26
2022-08-12T00:02:03.172Z,48.95
2022-08-12T00:02:44.243Z,52.31
2022-08-12T00:03:44.193Z,61.91
2022-08-12T00:04:43.184Z,57.31
2022-08-12T00:06:01.735Z,53.80
2022-08-12T00:06:44.164Z,57.62
2022-08-12T00:07:43.186Z,49.55
2022-08-12T00:08:43.152Z,56.11
2022-08-12T00:09:43.144Z,52.01
2022-08-12T00:10:43.139Z,60.48
2022-08-12T00:11:43.138Z,52.41
2022-08-12T00:12:43.152Z,56.29
2022-08-12T00:13:43.117Z,54.92
2022-08-12T00:14:43.109Z,54.13
2022-08-12T00:15:43.102Z,45.40
2022-08-12T00:16:43.095Z,43.66
2022-08-12T00:17:43.117Z,49.93
2022-08-12T00:18:43.079Z,55.77
2022-08-12T00:19:43.069Z,54.55
2022-08-12T00:20:43.060Z,54.07
2022-08-12T00:21:43.057Z,50.51
2022-08-12T00:22:43.074Z,53.93
2022-08-12T00:23:43.043Z,50.87
2022-08-12T00:24:43.028Z,47.73
2022-08-12T00:25:43.027Z,51.05
2022-08-12T00:26:44.020Z,53.75
2022-08-12T00:27:43.672Z,51.60
2022-08-12T00:28:43.003Z,48.83
2022-08-12T00:29:47.322Z,39.15
2022-08-12T00:30:44.985Z,40.71
2022-08-12T00:31:42.979Z,43.55
2022-08-12T00:32:44.392Z,49.23
2022-08-12T00:33:52.290Z,49.70
2022-08-12T00:34:43.949Z,54.40
2022-08-12T00:35:42.944Z,51.43
2022-08-12T00:36:42.942Z,54.02
2022-08-12T00:37:42.957Z,51.20
2022-08-12T00:38:42.920Z,58.72
2022-08-12T00:39:42.985Z,56.66
2022-08-12T00:40:42.908Z,46.50
2022-08-12T00:41:42.901Z,49.05
2022-08-12T00:42:43.136Z,56.75
2022-08-12T00:43:42.878Z,55.50
2022-08-12T00:44:43.879Z,48.55
2022-08-12T00:45:42.868Z,56.91
2022-08-12T00:46:42.854Z,58.39
2022-08-12T00:47:42.882Z,59.94
2022-08-12T00:48:42.842Z,57.65
2022-08-12T00:49:42.845Z,52.16
2022-08-12T00:50:43.825Z,49.93
2022-08-12T00:51:42.827Z,48.77
2022-08-12T00:52:42.837Z,45.63
2022-08-12T00:53:42.807Z,44.14
2022-08-12T00:54:42.792Z,43.29
2022-08-12T00:55:42.792Z,57.75
2022-08-12T00:56:42.783Z,63.39
2022-08-12T00:57:42.798Z,54.42
2022-08-12T00:58:42.765Z,52.57
2022-08-12T00:59:42.758Z,51.95
2022-08-12T01:00:42.749Z,47.51
2022-08-12T01:02:10.609Z,51.80
2022-08-12T01:02:43.758Z,42.27
2022-08-12T01:03:42.735Z,51.57
2022-08-12T01:04:42.720Z,58.21
2022-08-12T01:05:42.717Z,59.94
2022-08-12T01:06:42.711Z,53.01
2022-08-12T01:07:42.719Z,58.83
2022-08-12T01:08:42.691Z,55.85
2022-08-12T01:09:42.680Z,51.56
2022-08-12T01:10:42.670Z,51.78
2022-08-12T01:11:42.664Z,54.11
2022-08-12T01:12:42.685Z,57.60
2022-08-12T01:13:42.646Z,62.87
2022-08-12T01:14:42.642Z,61.01
2022-08-12T01:15:42.635Z,60.50
2022-08-12T01:16:42.621Z,54.80
2022-08-12T01:17:42.763Z,44.71
2022-08-12T01:18:42.610Z,48.27
2022-08-12T01:19:42.603Z,53.59
2022-08-12T01:20:42.594Z,55.15
2022-08-12T01:21:42.598Z,53.40
2022-08-12T01:22:42.617Z,54.76
2022-08-12T01:23:42.583Z,51.18
2022-08-12T01:24:42.574Z,48.60
2022-08-12T01:25:55.633Z,54.05
2022-08-12T01:26:43.552Z,55.21
2022-08-12T01:27:42.584Z,50.88
2022-08-12T01:28:42.539Z,52.60
2022-08-12T01:29:42.530Z,55.45
2022-08-12T01:30:42.524Z,62.83
2022-08-12T01:31:42.520Z,54.07
2022-08-12T01:32:42.536Z,41.97
2022-08-12T01:33:42.510Z,44.83
2022-08-12T01:34:42.497Z,48.79
2022-08-12T01:35:42.485Z,61.62
2022-08-12T01:36:42.477Z,61.45
2022-08-12T01:37:42.471Z,52.69
2022-08-12T01:38:42.532Z,50.19
2022-08-12T01:40:34.807Z,52.32
2022-08-12T01:40:46.857Z,56.55
2022-08-12T01:41:43.443Z,55.11
2022-08-12T01:42:43.436Z,56.63
2022-08-12T01:43:42.458Z,47.22
2022-08-12T01:44:42.413Z,47.01
2022-08-12T01:45:43.376Z,56.62
2022-08-12T01:46:42.406Z,55.95
2022-08-12T01:47:42.387Z,49.72
2022-08-12T01:48:42.408Z,51.47
2022-08-12T01:49:42.378Z,50.53
2022-08-12T01:50:43.100Z,51.26
2022-08-12T01:52:15.638Z,37.98
2022-08-12T01:52:43.346Z,47.11
2022-08-12T01:53:50.238Z,57.56
2022-08-12T01:54:43.340Z,61.23
2022-08-12T01:55:42.337Z,41.40
2022-08-12T01:56:42.324Z,47.45
2022-08-12T01:57:59.437Z,46.77
2022-08-12T01:58:43.330Z,43.61
2022-08-12T01:59:42.301Z,52.10
2022-08-12T02:00:43.483Z,39.02
2022-08-12T02:01:42.359Z,40.91
2022-08-12T02:02:42.300Z,46.78
2022-08-12T02:03:42.291Z,47.79
2022-08-12T02:04:42.261Z,59.46
2022-08-12T02:05:42.253Z,56.67
2022-08-12T02:06:42.252Z,55.73
2022-08-12T02:07:42.232Z,49.21
2022-08-12T02:08:42.252Z,44.79
2022-08-12T02:09:42.220Z,51.54
2022-08-12T02:10:49.913Z,55.35
2022-08-12T02:11:43.212Z,46.59
2022-08-12T02:12:42.529Z,54.38
2022-08-12T02:13:49.677Z,51.71
2022-08-12T02:14:43.179Z,49.04
2022-08-12T02:15:42.174Z,46.52
2022-08-12T02:16:42.167Z,55.88
2022-08-12T02:17:55.929Z,55.02
2022-08-12T02:18:43.170Z,58.68
2022-08-12T02:19:42.141Z,54.00
2022-08-12T02:20:51.268Z,51.85
2022-08-12T02:21:43.121Z,56.51
2022-08-12T02:22:42.284Z,50.55
2022-08-12T02:23:42.143Z,50.42
2022-08-12T02:24:42.101Z,52.99
2022-08-12T02:25:42.091Z,58.26
2022-08-12T02:26:42.090Z,55.00
2022-08-12T02:27:42.087Z,59.23
2022-08-12T02:28:42.100Z,54.47
2022-08-12T02:29:42.068Z,50.70
2022-08-12T02:30:42.617Z,56.72
2022-08-12T02:31:42.051Z,55.15
2022-08-12T02:32:42.040Z,46.58
2022-08-12T02:33:42.062Z,58.70
2022-08-12T02:34:42.025Z,55.59
2022-08-12T02:35:42.020Z,60.42
2022-08-12T02:36:42.016Z,53.94
2022-08-12T02:37:41.999Z,60.92
2022-08-12T02:38:42.022Z,54.82
2022-08-12T02:39:42.021Z,59.83
2022-08-12T02:40:41.983Z,61.63
2022-08-12T02:41:41.969Z,60.30
2022-08-12T02:42:41.959Z,55.36
2022-08-12T02:43:41.985Z,59.34
2022-08-12T02:44:41.948Z,59.24
2022-08-12T02:45:41.938Z,56.51
2022-08-12T02:46:41.937Z,51.04
2022-08-12T02:47:59.230Z,47.71
2022-08-12T02:48:42.960Z,59.87
2022-08-12T02:49:41.910Z,60.14
2022-08-12T02:50:41.905Z,55.75
2022-08-12T02:51:41.887Z,57.47
2022-08-12T02:52:42.020Z,63.16
2022-08-12T02:53:41.896Z,53.55
2022-08-12T02:54:41.874Z,58.42
2022-08-12T02:55:41.864Z,57.94
2022-08-12T02:56:41.853Z,53.28
2022-08-12T02:57:42.844Z,57.99
2022-08-12T02:58:45.432Z,57.46
2022-08-12T02:59:41.824Z,54.33
2022-08-12T03:00:41.885Z,57.97
2022-08-12T03:01:47.753Z,55.22
2022-08-12T03:02:42.796Z,58.22
2022-08-12T03:03:42.823Z,57.93
2022-08-12T03:04:44.053Z,56.17
2022-08-12T03:05:44.330Z,55.75
2022-08-12T03:06:41.778Z,49.31
2022-08-12T03:07:59.509Z,52.96
2022-08-12T03:08:42.791Z,52.46
2022-08-12T03:10:03.782Z,53.92
2022-08-12T03:10:42.739Z,56.46
2022-08-12T03:11:42.966Z,60.79
2022-08-12T03:12:49.840Z,59.18
2022-08-12T03:13:42.737Z,59.64
2022-08-12T03:14:41.736Z,59.17
2022-08-12T03:15:41.705Z,56.75
2022-08-12T03:16:41.697Z,57.92
2022-08-12T03:17:41.690Z,59.71
2022-08-12T03:18:44.443Z,62.67
2022-08-12T03:20:10.433Z,61.44
2022-08-12T03:20:42.662Z,60.19
2022-08-12T03:22:05.865Z,59.36
2022-08-12T03:22:42.807Z,59.71
2022-08-12T03:23:41.638Z,58.40
2022-08-12T03:24:41.653Z,58.84
2022-08-12T03:25:41.622Z,63.68
2022-08-12T03:26:41.624Z,59.00
2022-08-12T03:27:41.610Z,58.30
2022-08-12T03:28:41.602Z,61.85
2022-08-12T03:29:49.980Z,57.12
2022-08-12T03:30:42.587Z,61.87
2022-08-12T03:31:41.583Z,61.70
2022-08-12T03:32:41.569Z,62.47
2022-08-12T03:33:42.562Z,58.55
2022-08-12T03:34:41.580Z,61.68
2022-08-12T03:35:42.545Z,60.55
2022-08-12T03:36:41.541Z,59.96
2022-08-12T03:37:41.527Z,57.12
2022-08-12T03:38:41.557Z,63.69
2022-08-12T03:39:41.575Z,58.97
2022-08-12T03:40:41.507Z,62.03
2022-08-12T03:41:41.504Z,59.87
2022-08-12T03:42:41.770Z,62.95
2022-08-12T03:43:41.507Z,61.82
2022-08-12T03:44:41.477Z,59.27
2022-08-12T03:45:51.666Z,61.35
2022-08-12T03:46:42.469Z,60.96
2022-08-12T03:47:41.457Z,57.95
2022-08-12T03:48:41.476Z,58.06
2022-08-12T03:49:41.433Z,58.78
2022-08-12T03:50:41.432Z,60.65
2022-08-12T03:51:41.428Z,63.03
2022-08-12T03:52:41.622Z,61.25
2022-08-12T03:53:41.436Z,64.35
2022-08-12T03:54:42.669Z,66.31
2022-08-12T03:55:42.391Z,59.23
2022-08-12T03:56:41.386Z,58.60
2022-08-12T03:57:41.380Z,58.31
2022-08-12T03:58:41.371Z,56.29
2022-08-12T03:59:41.390Z,58.95
2022-08-12T04:00:41.391Z,54.05
2022-08-12T04:01:41.388Z,56.04
2022-08-12T04:02:41.548Z,62.19
2022-08-12T04:03:41.359Z,60.67
2022-08-12T04:04:41.324Z,62.19
2022-08-12T04:05:55.280Z,59.87
2022-08-12T04:06:42.308Z,63.25
2022-08-12T04:07:57.744Z,60.14
2022-08-12T04:08:42.303Z,59.75
2022-08-12T04:09:42.278Z,63.44
2022-08-12T04:10:41.272Z,61.73
2022-08-12T04:11:45.653Z,63.35
2022-08-12T04:12:42.319Z,62.96
2022-08-12T04:13:41.279Z,58.65
2022-08-12T04:14:41.237Z,62.97
2022-08-12T04:15:41.238Z,61.13
2022-08-12T04:16:41.219Z,62.55
2022-08-12T04:18:06.678Z,61.07
2022-08-12T04:18:42.232Z,61.34
2022-08-12T04:19:41.208Z,63.46
2022-08-12T04:20:41.196Z,63.19
2022-08-12T04:22:01.246Z,58.86
2022-08-12T04:22:42.179Z,63.88
2022-08-12T04:23:43.915Z,63.15
2022-08-12T04:24:42.167Z,61.91
2022-08-12T04:25:41.157Z,61.72
2022-08-12T04:26:41.144Z,59.58
2022-08-12T04:27:41.142Z,61.38
2022-08-12T04:28:41.165Z,61.63
2022-08-12T04:30:16.685Z,58.37
2022-08-12T04:30:42.117Z,61.32
2022-08-12T04:31:41.118Z,60.41
2022-08-12T04:32:44.459Z,62.68
2022-08-12T04:33:42.123Z,59.29
2022-08-12T04:34:41.081Z,59.36
2022-08-12T04:35:41.079Z,60.26
2022-08-12T04:36:41.064Z,58.48
2022-08-12T04:37:59.295Z,59.39
2022-08-12T04:38:42.078Z,62.80
2022-08-12T04:39:41.118Z,62.54
2022-08-12T04:40:41.024Z,63.16
2022-08-12T04:41:57.699Z,60.87
2022-08-12T04:42:42.081Z,59.78
2022-08-12T04:44:00.772Z,62.77
2022-08-12T04:44:42.007Z,58.46
2022-08-12T04:45:40.997Z,62.24
2022-08-12T04:46:40.996Z,59.44
2022-08-12T04:47:40.983Z,62.00
2022-08-12T04:48:41.004Z,61.11
2022-08-12T04:49:40.985Z,60.30
2022-08-12T04:50:40.956Z,60.58
2022-08-12T04:51:40.948Z,59.92
2022-08-12T04:52:41.057Z,62.51
2022-08-12T04:53:40.959Z,61.00
2022-08-12T04:54:40.927Z,59.18
2022-08-12T04:55:40.921Z,60.88
2022-08-12T04:56:40.918Z,59.79
2022-08-12T04:57:40.901Z,59.65
2022-08-12T04:58:40.895Z,60.63
2022-08-12T04:59:48.372Z,58.63
2022-08-12T05:00:41.883Z,57.13
2022-08-12T05:01:40.871Z,60.53
2022-08-12T05:02:41.122Z,61.95
2022-08-12T05:03:46.112Z,60.80
2022-08-12T05:04:41.869Z,60.14
2022-08-12T05:05:40.845Z,61.01
2022-08-12T05:06:40.841Z,59.79
2022-08-12T05:07:53.679Z,59.86
2022-08-12T05:08:41.821Z,61.85
2022-08-12T05:10:02.016Z,61.03
2022-08-12T05:10:41.810Z,63.03
2022-08-12T05:11:53.739Z,59.23
2022-08-12T05:12:42.005Z,60.40
2022-08-12T05:13:40.784Z,61.78
2022-08-12T05:14:40.807Z,60.18
2022-08-12T05:16:02.458Z,61.46
2022-08-12T05:16:42.760Z,55.87
2022-08-12T05:17:40.756Z,63.28
2022-08-12T05:18:40.745Z,58.67
2022-08-12T05:19:41.764Z,57.86
2022-08-12T05:20:40.739Z,60.79
2022-08-12T05:21:40.733Z,61.61
2022-08-12T05:22:40.888Z,63.53
2022-08-12T05:23:40.714Z,60.25
2022-08-12T05:24:40.732Z,61.19
2022-08-12T05:25:40.702Z,60.45
2022-08-12T05:26:40.727Z,61.80
2022-08-12T05:27:40.687Z,57.81
2022-08-12T05:28:41.678Z,59.95
2022-08-12T05:30:05.255Z,56.23
2022-08-12T05:30:41.661Z,58.16
2022-08-12T05:31:47.638Z,57.01
2022-08-12T05:32:41.929Z,56.78
2022-08-12T05:33:40.646Z,59.98
2022-08-12T05:34:40.661Z,59.94
2022-08-12T05:35:40.637Z,61.90
2022-08-12T05:36:40.625Z,57.84
2022-08-12T05:37:40.612Z,58.68
2022-08-12T05:38:40.609Z,59.28
2022-08-12T05:39:40.657Z,60.64
2022-08-12T05:40:40.597Z,60.71
2022-08-12T05:41:40.589Z,59.01
2022-08-12T05:42:40.585Z,60.82
2022-08-12T05:43:40.580Z,58.64
2022-08-12T05:44:40.591Z,58.23
2022-08-12T05:45:44.721Z,56.90
2022-08-12T05:46:41.560Z,58.55
2022-08-12T05:47:53.008Z,63.43
2022-08-12T05:48:41.547Z,58.27
2022-08-12T05:49:40.562Z,58.05
2022-08-12T05:50:40.531Z,61.29
2022-08-12T05:51:41.808Z,54.80
2022-08-12T05:52:40.644Z,57.71
2022-08-12T05:53:40.508Z,54.73
2022-08-12T05:54:56.675Z,59.90
2022-08-12T05:55:42.497Z,54.23
2022-08-12T05:56:40.488Z,56.63
2022-08-12T05:57:40.479Z,55.04
2022-08-12T05:58:40.476Z,56.09
2022-08-12T05:59:40.500Z,53.91
2022-08-12T06:00:40.465Z,56.52
2022-08-12T06:02:09.645Z,56.31
2022-08-12T06:02:41.609Z,60.10
2022-08-12T06:03:40.439Z,58.00
2022-08-12T06:04:40.458Z,54.39
2022-08-12T06:05:43.198Z,58.82
2022-08-12T06:06:41.420Z,58.65
2022-08-12T06:08:01.906Z,56.71
2022-08-12T06:08:41.406Z,58.16
2022-08-12T06:09:40.434Z,58.62
2022-08-12T06:10:40.398Z,57.37
2022-08-12T06:11:40.390Z,56.47
2022-08-12T06:12:41.645Z,56.24
2022-08-12T06:13:54.061Z,59.23
2022-08-12T06:14:41.396Z,58.15
2022-08-12T06:15:40.369Z,53.88
2022-08-12T06:16:40.360Z,58.14
2022-08-12T06:17:40.357Z,57.18
2022-08-12T06:18:40.351Z,54.88
2022-08-12T06:20:25.895Z,57.86
2022-08-12T06:20:41.518Z,54.31
2022-08-12T06:21:40.333Z,57.59
2022-08-12T06:22:40.411Z,55.28
2022-08-12T06:23:42.612Z,56.48
2022-08-12T06:24:41.332Z,57.95
2022-08-12T06:25:40.314Z,56.19
2022-08-12T06:26:40.305Z,53.91
2022-08-12T06:27:40.299Z,55.71
2022-08-12T06:28:41.287Z,57.42
2022-08-12T06:30:10.254Z,60.02
2022-08-12T06:30:41.285Z,56.77
2022-08-12T06:31:40.268Z,52.20
2022-08-12T06:32:51.802Z,58.15
2022-08-12T06:33:59.668Z,54.03
2022-08-12T06:35:24.388Z,55.26
2022-08-12T06:35:48.592Z,56.02
2022-08-12T06:36:41.244Z,57.33
2022-08-12T06:37:40.256Z,56.96
2022-08-12T06:38:40.233Z,56.22
2022-08-12T06:39:40.291Z,53.51
2022-08-12T06:40:40.215Z,54.69
2022-08-12T06:41:40.211Z,55.58
2022-08-12T06:42:41.213Z,54.75
2022-08-12T06:44:04.585Z,57.61
2022-08-12T06:44:41.220Z,59.19
2022-08-12T06:45:45.922Z,57.49
2022-08-12T06:46:41.181Z,56.32
2022-08-12T06:47:40.179Z,55.79
2022-08-12T06:48:40.183Z,59.28
2022-08-12T06:49:40.194Z,58.92
2022-08-12T06:50:40.480Z,57.96
2022-08-12T06:51:41.154Z,56.80
2022-08-12T06:52:41.337Z,53.54
2022-08-12T06:53:40.143Z,56.54
2022-08-12T06:54:40.170Z,60.95
2022-08-12T06:55:58.293Z,60.30
2022-08-12T06:57:03.118Z,55.82
2022-08-12T06:58:06.551Z,59.72
2022-08-12T06:58:41.117Z,58.40
2022-08-12T06:59:40.114Z,56.45
2022-08-12T07:00:40.163Z,62.47
2022-08-12T07:01:40.106Z,55.50
2022-08-12T07:02:40.361Z,56.21
2022-08-12T07:03:40.096Z,57.35
2022-08-12T07:04:40.213Z,59.98
2022-08-12T07:05:40.104Z,58.06
2022-08-12T07:06:40.078Z,54.05
2022-08-12T07:07:40.071Z,54.66
2022-08-12T07:08:40.064Z,56.63
2022-08-12T07:10:04.375Z,54.58
2022-08-12T07:10:41.073Z,51.56
2022-08-12T07:11:40.044Z,57.55
2022-08-12T07:12:40.214Z,55.61
2022-08-12T07:14:12.410Z,60.62
2022-08-12T07:14:42.903Z,56.16
2022-08-12T07:15:41.052Z,54.39
2022-08-12T07:16:40.017Z,55.54
2022-08-12T07:17:40.009Z,58.45
2022-08-12T07:18:40.006Z,57.96
2022-08-12T07:19:45.019Z,56.52
2022-08-12T07:20:52.155Z,58.63
2022-08-12T07:21:55.779Z,57.98
2022-08-12T07:22:41.100Z,53.64
2022-08-12T07:23:39.984Z,60.72
2022-08-12T07:24:39.976Z,55.95
2022-08-12T07:25:41.582Z,58.47
2022-08-12T07:26:39.967Z,56.72
2022-08-12T07:27:39.964Z,54.33
2022-08-12T07:28:39.959Z,60.89
2022-08-12T07:30:02.748Z,59.26
2022-08-12T07:30:40.974Z,60.40
2022-08-12T07:31:39.943Z,56.68
2022-08-12T07:32:39.984Z,56.54
2022-08-12T07:33:39.935Z,57.77
2022-08-12T07:34:39.928Z,56.55
2022-08-12T07:35:39.947Z,54.13
2022-08-12T07:36:39.922Z,55.33
2022-08-12T07:37:39.910Z,55.27
2022-08-12T07:38:39.902Z,58.39
2022-08-12T07:39:51.062Z,52.64
2022-08-12T07:40:40.917Z,56.68
2022-08-12T07:41:39.893Z,56.38
2022-08-12T07:42:40.120Z,57.90
2022-08-12T07:43:39.877Z,54.23
2022-08-12T07:44:39.878Z,59.79
2022-08-12T07:45:39.892Z,57.30
2022-08-12T07:46:39.860Z,58.77
2022-08-12T07:47:39.857Z,59.43
2022-08-12T07:48:39.852Z,54.35
2022-08-12T07:50:04.962Z,60.14
2022-08-12T07:50:40.862Z,56.77
2022-08-12T07:51:39.844Z,58.22
2022-08-12T07:52:39.976Z,57.10
2022-08-12T07:53:48.606Z,59.62
2022-08-12T07:54:40.816Z,56.31
2022-08-12T07:55:39.837Z,57.97
2022-08-12T07:56:39.812Z,58.16
2022-08-12T07:57:39.804Z,60.24
2022-08-12T07:58:41.980Z,57.10
2022-08-12T07:59:40.795Z,58.34
2022-08-12T08:00:39.821Z,59.57
2022-08-12T08:01:39.840Z,60.43
2022-08-12T08:02:39.924Z,62.72
2022-08-12T08:03:47.607Z,60.00
2022-08-12T08:04:40.762Z,59.39
2022-08-12T08:05:39.795Z,55.74
2022-08-12T08:06:39.753Z,60.07
2022-08-12T08:07:39.746Z,57.33
2022-08-12T08:08:39.744Z,60.30
2022-08-12T08:09:39.735Z,61.06
2022-08-12T08:10:39.731Z,59.94
2022-08-12T08:11:39.756Z,55.83
2022-08-12T08:12:39.910Z,59.84
2022-08-12T08:13:39.713Z,56.67
2022-08-12T08:14:39.707Z,57.43
2022-08-12T08:16:01.947Z,61.30
2022-08-12T08:16:41.719Z,58.69
2022-08-12T08:17:39.684Z,59.19
2022-08-12T08:18:39.681Z,60.05
2022-08-12T08:20:03.104Z,60.81
2022-08-12T08:20:40.675Z,58.25
2022-08-12T08:21:39.693Z,62.44
2022-08-12T08:22:42.090Z,59.07
2022-08-12T08:23:39.650Z,57.84
2022-08-12T08:24:39.645Z,59.11
2022-08-12T08:25:39.642Z,58.15
2022-08-12T08:26:39.675Z,60.12
2022-08-12T08:27:39.639Z,55.72
2022-08-12T08:28:39.625Z,57.12
2022-08-12T08:29:39.621Z,57.13
2022-08-12T08:30:39.619Z,59.76
2022-08-12T08:31:40.616Z,58.40
2022-08-12T08:32:40.815Z,59.67
2022-08-12T08:34:04.961Z,61.68
2022-08-12T08:34:53.656Z,53.30
2022-08-12T08:35:47.147Z,62.52
2022-08-12T08:36:40.604Z,58.64
2022-08-12T08:37:39.575Z,58.08
2022-08-12T08:38:39.572Z,58.42
2022-08-12T08:39:39.629Z,57.00
2022-08-12T08:40:39.555Z,59.58
2022-08-12T08:42:15.752Z,61.55
2022-08-12T08:42:40.804Z,53.83
2022-08-12T08:43:44.533Z,59.74
2022-08-12T08:44:40.531Z,58.94
2022-08-12T08:45:39.524Z,58.00
2022-08-12T08:46:39.562Z,58.38
2022-08-12T08:47:39.514Z,60.85
2022-08-12T08:48:39.506Z,57.92
2022-08-12T08:49:39.510Z,60.01
2022-08-12T08:50:39.494Z,56.69
2022-08-12T08:51:39.512Z,59.65
2022-08-12T08:52:40.986Z,59.43
2022-08-12T08:53:39.478Z,58.98
2022-08-12T08:54:39.470Z,60.57
2022-08-12T08:56:03.697Z,58.64
2022-08-12T08:56:41.486Z,60.79
2022-08-12T08:57:43.622Z,59.53
2022-08-12T08:58:39.453Z,58.27
2022-08-12T08:59:39.437Z,57.73
2022-08-12T09:00:39.429Z,54.70
2022-08-12T09:01:39.507Z,57.55
2022-08-12T09:02:39.538Z,59.56
2022-08-12T09:05:08.205Z,60.59
2022-08-12T09:05:13.456Z,62.98
2022-08-12T09:05:43.177Z,60.14
2022-08-12T09:06:41.971Z,60.06
2022-08-12T09:07:51.683Z,57.68
2022-08-12T09:08:40.378Z,63.47
2022-08-12T09:10:02.863Z,60.29
2022-08-12T09:10:45.165Z,59.10
2022-08-12T09:12:11.587Z,60.78
2022-08-12T09:12:42.425Z,64.57
2022-08-12T09:14:11.333Z,59.36
2022-08-12T09:14:40.330Z,58.95
2022-08-12T09:15:41.546Z,57.92
2022-08-12T09:16:42.854Z,57.82
2022-08-12T09:18:41.161Z,59.25
2022-08-12T09:19:39.306Z,60.10
2022-08-12T09:20:39.300Z,59.01
2022-08-12T09:21:54.536Z,56.93
2022-08-12T09:22:40.279Z,58.84
2022-08-12T09:24:00.751Z,58.83
2022-08-12T09:24:40.299Z,61.17
2022-08-12T09:25:39.261Z,58.08
2022-08-12T09:26:46.204Z,61.69
2022-08-12T09:28:03.521Z,60.27
2022-08-12T09:28:40.244Z,54.82
2022-08-12T09:30:11.999Z,57.58
2022-08-12T09:30:41.785Z,62.42
2022-08-12T09:32:07.652Z,60.16
2022-08-12T09:33:01.539Z,60.68
2022-08-12T09:34:27.409Z,58.38
2022-08-12T09:34:42.198Z,59.53
2022-08-12T09:35:43.246Z,61.54
2022-08-12T09:36:57.761Z,66.16
2022-08-12T09:37:57.936Z,60.14
2022-08-12T09:38:40.166Z,59.69
2022-08-12T09:40:05.845Z,58.40
2022-08-12T09:41:01.590Z,60.18
2022-08-12T09:42:33.734Z,58.58
2022-08-12T09:42:49.226Z,61.08
2022-08-12T09:43:41.137Z,60.44
2022-08-12T09:44:40.214Z,59.44
2022-08-12T09:46:07.014Z,61.26
2022-08-12T09:46:40.181Z,56.84
2022-08-12T09:47:39.126Z,58.68
2022-08-12T09:48:39.928Z,58.55
2022-08-12T09:49:42.621Z,61.04
2022-08-12T09:50:40.114Z,57.47
2022-08-12T09:51:43.812Z,59.34
2022-08-12T09:52:39.098Z,57.80
2022-08-12T09:53:39.671Z,61.93
2022-08-12T09:54:42.765Z,60.35
2022-08-12T09:56:05.294Z,67.47
2022-08-12T09:56:59.404Z,60.42
2022-08-12T09:58:51.090Z,58.12
2022-08-12T09:58:57.694Z,64.52
2022-08-12T10:00:17.553Z,54.72
2022-08-12T10:00:52.184Z,56.33
2022-08-12T10:02:41.856Z,62.13
2022-08-12T10:02:53.159Z,56.53
2022-08-12T10:04:03.507Z,58.75
2022-08-12T10:04:40.348Z,63.95
2022-08-12T10:06:26.957Z,62.99
2022-08-12T10:06:54.636Z,57.69
2022-08-12T10:07:40.924Z,62.65
2022-08-12T10:08:38.950Z,62.15
2022-08-12T10:09:58.011Z,56.67
2022-08-12T10:10:42.520Z,59.39
2022-08-12T10:12:07.729Z,63.24
2022-08-12T10:12:39.947Z,59.80
2022-08-12T10:13:39.810Z,63.76
2022-08-12T10:14:39.072Z,59.12
2022-08-12T10:16:00.925Z,61.00
2022-08-12T10:16:39.888Z,60.72
2022-08-12T10:18:05.948Z,61.16
2022-08-12T10:18:52.010Z,54.97
2022-08-12T10:19:39.869Z,58.41
2022-08-12T10:20:38.862Z,60.59
2022-08-12T10:21:38.858Z,60.13
2022-08-12T10:22:41.092Z,58.94
2022-08-12T10:23:40.169Z,62.30
2022-08-12T10:24:39.831Z,60.19
2022-08-12T10:26:35.862Z,58.65
2022-08-12T10:26:39.809Z,61.48
2022-08-12T10:28:05.789Z,64.69
2022-08-12T10:28:39.870Z,61.16
2022-08-12T10:30:03.333Z,60.76
2022-08-12T10:30:44.226Z,57.88
2022-08-12T10:31:58.620Z,60.69
2022-08-12T10:33:02.438Z,60.78
2022-08-12T10:33:55.161Z,64.73
2022-08-12T10:34:39.764Z,62.73
2022-08-12T10:35:39.747Z,61.04
2022-08-12T10:36:40.278Z,60.15
2022-08-12T10:38:36.642Z,59.83
2022-08-12T10:38:41.423Z,60.88
2022-08-12T10:40:02.233Z,60.30
2022-08-12T10:40:39.767Z,63.78
2022-08-12T10:41:57.811Z,58.16
2022-08-12T10:42:39.765Z,60.47
2022-08-12T10:43:56.450Z,62.81
2022-08-12T10:44:39.696Z,59.27
2022-08-12T10:45:38.804Z,63.96
2022-08-12T10:46:38.675Z,61.99
2022-08-12T10:48:20.456Z,58.14
2022-08-12T10:48:39.679Z,60.67
2022-08-12T10:50:02.381Z,60.35
2022-08-12T10:50:58.410Z,60.44
2022-08-12T10:52:03.940Z,61.44
2022-08-12T10:52:39.626Z,55.75
2022-08-12T10:53:44.344Z,60.12
2022-08-12T10:54:39.610Z,62.04
2022-08-12T10:55:38.608Z,61.30
2022-08-12T10:56:38.602Z,63.02
2022-08-12T10:58:14.232Z,63.53
2022-08-12T10:58:39.606Z,62.65
2022-08-12T11:00:31.757Z,62.37
2022-08-12T11:00:45.541Z,61.35
2022-08-12T11:04:18.084Z,59.18
2022-08-12T11:04:23.068Z,61.05
2022-08-12T11:04:26.952Z,58.85
2022-08-12T11:04:44.832Z,60.10
2022-08-12T11:07:07.901Z,60.57
2022-08-12T11:07:07.994Z,62.02
2022-08-12T11:08:35.053Z,61.34
2022-08-12T11:08:43.669Z,63.70
2022-08-12T11:09:55.758Z,60.17
2022-08-12T11:10:39.536Z,60.13
2022-08-12T11:12:35.874Z,58.94
2022-08-12T11:12:59.331Z,62.33
2022-08-12T11:13:46.524Z,59.82
2022-08-12T11:14:50.034Z,62.79
2022-08-12T11:16:03.238Z,62.83
2022-08-12T11:16:39.457Z,62.35
2022-08-12T11:17:54.479Z,60.77
2022-08-12T11:18:39.459Z,58.44
2022-08-12T11:19:38.423Z,60.79
2022-08-12T11:20:38.414Z,60.25
2022-08-12T11:21:56.917Z,62.13
2022-08-12T11:22:39.475Z,59.15
2022-08-12T11:23:38.390Z,58.74
2022-08-12T11:24:38.417Z,58.69
2022-08-12T11:25:56.447Z,61.57
2022-08-12T11:26:39.374Z,60.41
2022-08-12T11:27:38.370Z,58.28
2022-08-12T11:28:38.858Z,61.04
2022-08-12T11:30:02.086Z,55.73
2022-08-12T11:30:39.337Z,60.12
2022-08-12T11:31:55.895Z,58.00
2022-08-12T11:32:39.595Z,60.90
2022-08-12T11:34:06.275Z,61.41
2022-08-12T11:34:52.704Z,61.66
2022-08-12T11:35:39.298Z,61.17
2022-08-12T11:36:39.303Z,62.01
2022-08-12T11:37:57.878Z,61.36
2022-08-12T11:38:39.267Z,62.61
2022-08-12T11:40:02.866Z,60.06
2022-08-12T11:40:42.492Z,59.56
2022-08-12T11:41:38.230Z,63.08
2022-08-12T11:42:45.913Z,61.89
2022-08-12T11:43:50.754Z,58.25
2022-08-12T11:44:42.968Z,63.31
2022-08-12T11:45:38.840Z,59.18
2022-08-12T11:46:38.189Z,60.45
2022-08-12T11:47:40.257Z,61.11
2022-08-12T11:48:52.448Z,61.94
2022-08-12T11:49:39.195Z,60.16
2022-08-12T11:50:40.599Z,62.11
2022-08-12T11:51:39.893Z,62.13
2022-08-12T11:53:57.032Z,59.40
2022-08-12T11:53:57.591Z,61.97
2022-08-12T11:54:39.152Z,60.87
2022-08-12T11:55:45.358Z,59.81
2022-08-12T11:56:41.958Z,56.98
2022-08-12T11:58:18.384Z,61.00
2022-08-12T12:00:55.320Z,62.86
2022-08-12T12:02:02.774Z,60.78
2022-08-12T12:02:39.157Z,62.50
2022-08-12T12:03:40.498Z,58.58
2022-08-12T12:04:39.092Z,57.27
2022-08-12T12:05:41.770Z,59.21
2022-08-12T12:06:39.041Z,60.90
2022-08-12T12:08:41.681Z,62.34
2022-08-12T12:08:42.680Z,61.92
2022-08-12T12:09:52.586Z,59.11
2022-08-12T12:10:39.021Z,62.98
2022-08-12T12:11:48.721Z,59.91
2022-08-12T12:12:41.548Z,62.90
2022-08-12T12:14:08.775Z,60.31
2022-08-12T12:14:39.238Z,59.47
2022-08-12T12:15:41.270Z,59.68
2022-08-12T12:16:39.755Z,59.42
2022-08-12T12:17:38.492Z,63.40
2022-08-12T12:18:37.962Z,61.96
2022-08-12T12:19:39.885Z,59.82
2022-08-12T12:20:38.956Z,65.57
2022-08-12T12:21:47.312Z,63.52
2022-08-12T12:22:39.034Z,61.62
2022-08-12T12:23:37.936Z,62.03
2022-08-12T12:24:37.944Z,64.17
2022-08-12T12:25:59.661Z,63.51
2022-08-12T12:26:38.904Z,62.75
2022-08-12T12:28:04.339Z,61.69
2022-08-12T12:28:39.733Z,60.14
2022-08-12T12:30:13.660Z,59.97
2022-08-12T12:30:38.879Z,62.56
2022-08-12T12:32:10.897Z,61.34
2022-08-12T12:32:38.861Z,59.82
2022-08-12T12:33:57.265Z,55.43
2022-08-12T12:34:38.874Z,59.61
2022-08-12T12:36:06.575Z,59.93
2022-08-12T12:36:38.840Z,59.79
2022-08-12T12:38:04.617Z,62.31
2022-08-12T12:38:38.818Z,56.91
2022-08-12T12:39:54.645Z,59.61
2022-08-12T12:40:39.724Z,61.29
2022-08-12T12:42:44.240Z,60.88
2022-08-12T12:42:44.332Z,60.62
2022-08-12T12:43:44.778Z,61.67
2022-08-12T12:44:42.131Z,61.50
2022-08-12T12:45:38.765Z,59.92
2022-08-12T12:46:37.755Z,63.09
2022-08-12T12:47:37.747Z,62.83
2022-08-12T12:48:39.598Z,60.36
2022-08-12T12:49:38.769Z,62.84
2022-08-12T12:50:42.270Z,61.32
2022-08-12T12:51:55.100Z,62.33
2022-08-12T12:52:38.714Z,62.87
2022-08-12T12:54:06.263Z,58.49
2022-08-12T12:54:38.721Z,62.90
2022-08-12T12:55:37.688Z,60.34